Time;durP1;ratioP1;P1;durP2;ratioP2;P2;SDS_P1;SDS_P2;PMS_P1;PMS_P2;Temp;Humidity;BMP_temperature;BMP_pressure;BME280_temperature;BME280_humidity;BME280_pressure;Samples;Min_cycle;Max_cycle;Signal;HPM_P1;HPM_P2
2021/08/01 00:00:49;;;;;;;21.27;15.48;;;15.10;99.90;;;;;;5055758;28;20051;-77
2021/08/01 00:03:15;;;;;;;20.70;15.30;;;15.10;99.90;;;;;;5062654;28;20400;-77
2021/08/01 00:05:45;;;;;;;14.85;12.60;;;15.10;99.90;;;;;;5077033;28;20078;-78
2021/08/01 00:08:11;;;;;;;29.70;16.35;;;15.10;99.90;;;;;;5075969;28;20032;-78
2021/08/01 00:10:39;;;;;;;15.02;13.43;;;15.10;99.90;;;;;;5073380;28;20040;-77
2021/08/01 00:13:06;;;;;;;16.63;13.00;;;15.10;99.90;;;;;;5079059;28;20039;-77
2021/08/01 00:15:32;;;;;;;19.40;15.80;;;15.10;99.90;;;;;;5074645;28;20064;-78
2021/08/01 00:17:58;;;;;;;19.95;14.40;;;15.10;99.90;;;;;;5073156;28;20036;-78
2021/08/01 00:20:24;;;;;;;18.63;14.73;;;15.10;99.90;;;;;;5070972;28;20048;-77
2021/08/01 00:22:50;;;;;;;21.40;15.60;;;15.10;99.90;;;;;;5059134;28;20711;-78
2021/08/01 00:25:16;;;;;;;17.33;13.40;;;15.10;99.90;;;;;;5075286;28;20035;-78
2021/08/01 00:27:42;;;;;;;20.77;14.90;;;15.10;99.90;;;;;;5043312;28;20135;-77
2021/08/01 00:30:11;;;;;;;24.77;16.52;;;15.10;99.90;;;;;;5050211;28;20044;-78
2021/08/01 00:32:39;;;;;;;24.50;15.25;;;15.10;99.90;;;;;;5076067;28;20048;-78
2021/08/01 00:35:06;;;;;;;23.30;15.80;;;15.10;99.90;;;;;;5073881;28;20036;-78
2021/08/01 00:37:32;;;;;;;17.95;12.93;;;15.10;99.90;;;;;;5076829;28;20072;-77
2021/08/01 00:39:59;;;;;;;13.30;11.75;;;15.10;99.90;;;;;;5074973;28;20568;-77
2021/08/01 00:42:25;;;;;;;16.15;13.07;;;15.00;99.90;;;;;;5057338;28;20696;-78
2021/08/01 00:44:51;;;;;;;20.50;14.88;;;15.00;99.90;;;;;;5070030;28;20039;-77
2021/08/01 00:47:20;;;;;;;21.73;15.57;;;15.00;99.90;;;;;;5052328;28;20036;-78
2021/08/01 00:49:46;;;;;;;22.60;17.33;;;15.00;99.90;;;;;;5088495;28;20037;-77
2021/08/01 00:52:12;;;;;;;26.30;17.63;;;14.90;99.90;;;;;;5039014;28;20090;-78
2021/08/01 00:54:41;;;;;;;16.90;13.73;;;14.90;99.90;;;;;;5058102;28;20041;-77
2021/08/01 00:57:07;;;;;;;25.95;16.38;;;14.90;99.90;;;;;;5068754;28;20044;-77
2021/08/01 00:59:37;;;;;;;16.85;14.50;;;14.80;99.90;;;;;;5073792;28;20505;-77
2021/08/01 01:02:11;;;;;;;20.73;13.93;;;14.90;99.90;;;;;;5071208;28;20111;-77
2021/08/01 01:04:55;;;;;;;26.52;16.90;;;14.90;99.90;;;;;;5067614;28;20067;-77
2021/08/01 01:07:33;;;;;;;15.38;12.80;;;14.90;99.90;;;;;;5075868;28;20114;-77
2021/08/01 01:10:07;;;;;;;14.98;12.45;;;14.90;99.90;;;;;;5070115;28;20226;-75
2021/08/01 01:12:39;;;;;;;19.00;14.45;;;14.90;99.90;;;;;;5073257;28;20102;-78
2021/08/01 01:15:12;;;;;;;18.88;14.60;;;14.90;99.90;;;;;;5069563;28;20032;-78
2021/08/01 01:17:41;;;;;;;21.33;16.35;;;14.90;99.90;;;;;;5079135;28;20116;-77
2021/08/01 01:20:18;;;;;;;20.33;15.80;;;14.90;99.90;;;;;;5053070;28;20045;-75
2021/08/01 01:22:57;;;;;;;18.25;13.93;;;14.90;99.90;;;;;;5079448;28;20054;-76
2021/08/01 01:25:50;;;;;;;26.33;17.52;;;14.90;99.90;;;;;;5078334;28;20105;-76
2021/08/01 01:29:00;;;;;;;35.58;19.42;;;14.90;99.90;;;;;;5072905;28;20044;-76
2021/08/01 01:31:36;;;;;;;27.95;17.60;;;14.90;99.90;;;;;;5078314;28;20503;-76
2021/08/01 01:34:13;;;;;;;21.75;16.50;;;14.90;99.90;;;;;;5056619;28;20063;-76
2021/08/01 01:36:42;;;;;;;19.13;15.27;;;14.90;99.90;;;;;;5076096;28;20044;-76
2021/08/01 01:39:08;;;;;;;18.00;14.32;;;14.80;99.90;;;;;;5075085;28;20475;-76
2021/08/01 01:41:42;;;;;;;25.83;18.05;;;14.80;99.90;;;;;;5068445;28;20115;-76
2021/08/01 01:44:09;;;;;;;27.10;18.88;;;14.80;99.90;;;;;;5077180;28;20376;-76
2021/08/01 01:46:40;;;;;;;18.25;15.18;;;14.80;99.90;;;;;;5067471;28;20090;-76
2021/08/01 01:49:08;;;;;;;19.77;15.88;;;14.80;99.90;;;;;;5073112;28;20047;-76
2021/08/01 01:51:35;;;;;;;29.83;18.08;;;14.80;99.90;;;;;;5072113;28;20068;-76
2021/08/01 01:54:01;;;;;;;20.02;16.98;;;14.80;99.90;;;;;;5068535;28;20094;-76
2021/08/01 01:56:32;;;;;;;30.52;19.25;;;14.70;99.90;;;;;;5073819;28;20510;-76
2021/08/01 01:58:59;;;;;;;28.40;19.63;;;14.80;99.90;;;;;;5066804;28;20051;-76
2021/08/01 02:01:25;;;;;;;21.63;16.10;;;14.80;99.90;;;;;;5055798;28;21337;-76
2021/08/01 02:03:51;;;;;;;44.60;22.25;;;14.80;99.90;;;;;;5075334;28;20505;-76
2021/08/01 02:06:18;;;;;;;26.50;18.40;;;14.80;99.90;;;;;;5080566;28;20483;-76
2021/08/01 02:09:09;;;;;;;30.92;19.63;;;14.80;99.90;;;;;;5072320;28;20047;-75
2021/08/01 02:11:43;;;;;;;29.33;20.30;;;14.90;99.90;;;;;;5067125;28;20079;-76
2021/08/01 02:14:18;;;;;;;27.33;18.52;;;14.90;99.90;;;;;;5067931;28;20341;-76
2021/08/01 02:16:47;;;;;;;21.05;16.48;;;14.90;99.90;;;;;;5072787;28;20040;-76
2021/08/01 02:19:15;;;;;;;33.47;20.40;;;14.90;99.90;;;;;;5075421;28;20044;-76
2021/08/01 02:21:44;;;;;;;25.00;17.13;;;14.90;99.90;;;;;;5057916;28;20039;-76
2021/08/01 02:24:11;;;;;;;27.67;19.35;;;14.80;99.90;;;;;;5072587;28;20040;-76
2021/08/01 02:26:39;;;;;;;31.95;20.95;;;14.90;99.90;;;;;;5062737;28;20532;-76
2021/08/01 02:29:08;;;;;;;50.47;23.98;;;14.90;99.90;;;;;;5077494;28;20090;-76
2021/08/01 02:31:35;;;;;;;35.50;21.50;;;14.90;99.90;;;;;;5087846;28;20594;-76
2021/08/01 02:34:01;;;;;;;29.55;20.17;;;14.90;99.90;;;;;;5085580;28;20048;-76
2021/08/01 02:36:27;;;;;;;28.80;21.13;;;15.00;99.90;;;;;;5085294;28;20049;-76
2021/08/01 02:38:57;;;;;;;35.85;21.67;;;15.00;99.90;;;;;;5073487;28;20110;-76
2021/08/01 02:41:29;;;;;;;41.67;24.25;;;15.00;99.90;;;;;;5084939;28;20060;-76
2021/08/01 02:43:59;;;;;;;44.63;24.85;;;14.90;99.90;;;;;;5071940;28;20098;-76
2021/08/01 02:46:28;;;;;;;49.63;25.20;;;14.90;99.90;;;;;;5088085;28;21114;-76
2021/08/01 02:48:56;;;;;;;58.13;26.75;;;14.90;99.90;;;;;;5074923;28;20063;-75
2021/08/01 02:51:23;;;;;;;43.63;25.98;;;14.90;99.90;;;;;;5083248;28;20043;-75
2021/08/01 02:53:53;;;;;;;45.67;26.05;;;14.90;99.90;;;;;;5087690;28;20056;-75
2021/08/01 02:56:22;;;;;;;45.03;25.92;;;14.90;99.90;;;;;;5082413;28;20119;-75
2021/08/01 02:58:53;;;;;;;45.83;26.45;;;14.90;99.90;;;;;;5087319;28;20128;-75
2021/08/01 03:01:19;;;;;;;35.00;23.98;;;15.00;99.90;;;;;;5078088;28;20044;-75
2021/08/01 03:03:47;;;;;;;50.00;27.73;;;14.90;99.90;;;;;;5056318;28;20048;-76
2021/08/01 03:06:15;;;;;;;65.43;30.35;;;15.00;99.90;;;;;;5081907;28;20036;-75
2021/08/01 03:08:42;;;;;;;40.58;26.50;;;14.90;99.90;;;;;;5083317;28;20063;-75
2021/08/01 03:11:12;;;;;;;43.58;28.13;;;14.90;99.90;;;;;;5087250;28;20456;-75
2021/08/01 03:13:39;;;;;;;44.15;29.35;;;15.00;99.90;;;;;;5086852;28;20948;-75
2021/08/01 03:16:05;;;;;;;65.45;32.35;;;15.00;99.90;;;;;;5086151;28;20063;-75
2021/08/01 03:18:31;;;;;;;68.93;34.80;;;15.00;99.90;;;;;;5035771;28;20059;-75
2021/08/01 03:20:57;;;;;;;42.28;28.60;;;14.90;99.90;;;;;;5069785;28;20044;-75
2021/08/01 03:23:22;;;;;;;52.17;31.08;;;15.00;99.90;;;;;;5086353;28;20101;-76
2021/08/01 03:25:48;;;;;;;48.33;31.30;;;14.90;99.90;;;;;;5086430;28;20487;-76
2021/08/01 03:28:14;;;;;;;53.90;32.83;;;15.00;99.90;;;;;;5086646;28;20068;-76
2021/08/01 03:30:40;;;;;;;52.08;32.95;;;14.90;99.90;;;;;;5058187;28;20490;-76
2021/08/01 03:33:07;;;;;;;56.88;33.47;;;14.90;99.90;;;;;;5048148;28;20053;-75
2021/08/01 03:35:37;;;;;;;45.72;29.40;;;14.90;99.90;;;;;;5067254;28;20653;-76
2021/08/01 03:38:02;;;;;;;53.50;32.67;;;14.90;99.90;;;;;;5071761;28;20101;-75
2021/08/01 03:40:28;;;;;;;46.28;31.48;;;15.00;99.90;;;;;;5056730;28;20043;-76
2021/08/01 03:42:54;;;;;;;53.60;34.67;;;14.90;99.90;;;;;;5069942;28;20577;-76
2021/08/01 03:45:20;;;;;;;51.25;32.10;;;14.90;99.90;;;;;;5070986;28;20036;-76
2021/08/01 03:47:46;;;;;;;57.60;35.00;;;14.90;99.90;;;;;;5057074;28;20045;-75
2021/08/01 03:50:12;;;;;;;63.20;34.40;;;14.90;99.90;;;;;;5063539;28;20043;-75
2021/08/01 03:52:39;;;;;;;53.10;33.05;;;14.90;99.90;;;;;;5061973;28;20041;-75
2021/08/01 03:55:05;;;;;;;58.25;33.83;;;14.90;99.90;;;;;;5066547;28;20036;-75
2021/08/01 03:57:32;;;;;;;61.50;35.60;;;14.90;99.90;;;;;;5075957;28;20547;-75
2021/08/01 03:59:58;;;;;;;45.45;30.42;;;14.90;99.90;;;;;;5051221;28;20120;-75
2021/08/01 04:02:24;;;;;;;55.95;34.78;;;15.00;99.90;;;;;;5061025;28;20040;-76
2021/08/01 04:04:50;;;;;;;59.30;34.42;;;14.90;99.90;;;;;;5076343;28;20040;-76
2021/08/01 04:07:16;;;;;;;52.88;33.50;;;15.00;99.90;;;;;;5076305;28;20376;-76
2021/08/01 04:09:45;;;;;;;50.83;32.22;;;15.00;99.90;;;;;;5070334;28;20036;-76
2021/08/01 04:12:11;;;;;;;70.55;36.67;;;15.00;99.90;;;;;;5056999;28;20044;-76
2021/08/01 04:14:43;;;;;;;46.85;31.77;;;15.00;99.90;;;;;;5055963;28;20044;-76
2021/08/01 04:17:09;;;;;;;73.93;38.67;;;15.00;99.90;;;;;;5072655;28;20036;-76
2021/08/01 04:19:35;;;;;;;66.05;37.40;;;15.00;99.90;;;;;;5074674;28;20052;-76
2021/08/01 04:22:04;;;;;;;60.65;34.72;;;15.00;99.90;;;;;;5077579;28;20052;-75
2021/08/01 04:24:30;;;;;;;61.47;36.08;;;15.00;99.90;;;;;;5060896;28;20106;-75
2021/08/01 04:26:59;;;;;;;75.47;38.60;;;15.00;99.90;;;;;;5074980;28;20036;-74
2021/08/01 04:29:25;;;;;;;59.33;35.95;;;15.00;99.90;;;;;;5053566;28;20052;-75
2021/08/01 04:31:51;;;;;;;62.45;36.22;;;15.10;99.90;;;;;;5048140;28;20452;-74
2021/08/01 04:34:18;;;;;;;64.53;38.45;;;15.10;99.90;;;;;;5069443;28;20123;-75
2021/08/01 04:36:44;;;;;;;58.97;37.63;;;15.10;99.90;;;;;;5061417;28;20541;-75
2021/08/01 04:39:10;;;;;;;58.78;34.13;;;15.10;99.90;;;;;;5073081;28;20051;-75
2021/08/01 04:41:42;;;;;;;58.28;35.00;;;15.10;99.90;;;;;;5068841;28;20032;-75
2021/08/01 04:44:08;;;;;;;52.15;34.38;;;15.20;99.90;;;;;;5091992;28;20072;-77
2021/08/01 04:46:35;;;;;;;62.65;36.08;;;15.10;99.90;;;;;;5070017;28;20044;-76
2021/08/01 04:49:00;;;;;;;62.40;37.08;;;15.10;99.90;;;;;;5064003;28;20032;-76
2021/08/01 04:51:26;;;;;;;57.63;35.70;;;15.20;99.90;;;;;;5062648;28;20045;-76
2021/08/01 04:53:52;;;;;;;59.30;35.65;;;15.20;99.90;;;;;;5072631;28;20044;-76
2021/08/01 04:56:18;;;;;;;57.38;36.63;;;15.20;99.90;;;;;;5055674;28;20037;-75
2021/08/01 04:58:44;;;;;;;56.58;34.55;;;15.20;99.90;;;;;;5075313;28;20068;-76
2021/08/01 05:01:11;;;;;;;55.28;33.97;;;15.30;99.90;;;;;;5055004;28;20174;-75
2021/08/01 05:03:37;;;;;;;58.83;34.50;;;15.30;99.90;;;;;;5065257;28;20040;-78
2021/08/01 05:06:03;;;;;;;56.95;33.25;;;15.30;99.90;;;;;;5079532;28;20028;-78
2021/08/01 05:08:29;;;;;;;53.28;32.70;;;15.40;99.90;;;;;;5073993;28;20104;-79
2021/08/01 05:10:55;;;;;;;53.90;32.30;;;15.30;99.90;;;;;;5060412;28;20487;-79
2021/08/01 05:13:21;;;;;;;50.78;30.75;;;15.40;99.90;;;;;;5045267;28;20807;-79
2021/08/01 05:15:47;;;;;;;59.40;34.47;;;15.40;99.90;;;;;;5079310;28;20039;-77
2021/08/01 05:18:13;;;;;;;61.83;34.05;;;15.40;99.90;;;;;;5046734;28;20432;-78
2021/08/01 05:20:43;;;;;;;62.80;36.10;;;15.40;99.90;;;;;;5058118;28;20055;-78
2021/08/01 05:23:10;;;;;;;71.82;36.75;;;15.40;99.90;;;;;;5060580;28;20032;-79
2021/08/01 05:25:37;;;;;;;53.45;31.55;;;15.50;99.90;;;;;;5072991;28;20040;-78
2021/08/01 05:28:03;;;;;;;58.40;34.08;;;15.40;99.90;;;;;;5068199;28;20070;-78
2021/08/01 05:30:30;;;;;;;78.90;34.95;;;15.50;99.90;;;;;;5057868;28;20044;-78
2021/08/01 05:32:56;;;;;;;66.75;34.50;;;15.40;99.90;;;;;;5059647;28;20036;-77
2021/08/01 05:35:23;;;;;;;75.30;36.85;;;15.40;99.90;;;;;;5048960;28;20491;-77
2021/08/01 05:37:49;;;;;;;55.33;33.17;;;15.40;99.90;;;;;;5079697;28;20289;-76
2021/08/01 05:40:15;;;;;;;83.32;37.72;;;15.40;99.90;;;;;;5058948;28;20036;-81
2021/08/01 05:42:40;;;;;;;53.40;30.52;;;15.40;99.90;;;;;;5058182;28;20153;-78
2021/08/01 05:45:07;;;;;;;62.65;33.78;;;15.40;99.90;;;;;;5061314;28;20479;-79
2021/08/01 05:47:38;;;;;;;70.28;34.83;;;15.40;99.90;;;;;;5045739;28;20079;-80
2021/08/01 05:50:06;;;;;;;62.10;32.88;;;15.40;99.90;;;;;;5073254;28;20556;-81
2021/08/01 05:52:32;;;;;;;62.38;34.95;;;15.40;99.90;;;;;;5045708;28;20044;-79
2021/08/01 05:54:58;;;;;;;54.35;32.60;;;15.40;99.90;;;;;;5044124;28;20032;-80
2021/08/01 05:57:24;;;;;;;73.40;37.45;;;15.40;99.90;;;;;;5057941;28;20032;-80
2021/08/01 05:59:50;;;;;;;50.00;31.08;;;15.50;99.90;;;;;;5067553;28;20040;-80
2021/08/01 06:02:15;;;;;;;67.90;35.08;;;15.50;99.90;;;;;;5063523;28;20037;-83
2021/08/01 06:04:41;;;;;;;68.03;33.97;;;15.40;99.90;;;;;;5042993;28;20053;-82
2021/08/01 06:07:07;;;;;;;61.90;31.90;;;15.40;99.90;;;;;;5062194;28;20036;-85
2021/08/01 06:09:34;;;;;;;47.83;29.92;;;15.40;99.90;;;;;;5069610;28;20075;-82
2021/08/01 06:12:00;;;;;;;36.95;24.17;;;15.40;99.90;;;;;;5076659;28;20032;-80
2021/08/01 06:14:26;;;;;;;35.85;21.70;;;15.40;99.90;;;;;;5055826;28;20044;-78
2021/08/01 06:16:52;;;;;;;41.25;23.65;;;15.40;99.90;;;;;;5064712;28;20052;-79
2021/08/01 06:19:17;;;;;;;49.45;26.67;;;15.40;99.90;;;;;;5068162;28;20044;-79
2021/08/01 06:21:43;;;;;;;53.80;27.88;;;15.40;99.90;;;;;;5076106;28;20050;-79
2021/08/01 06:24:09;;;;;;;55.15;30.35;;;15.50;99.90;;;;;;5078795;28;20719;-80
2021/08/01 06:26:37;;;;;;;52.25;29.30;;;15.50;99.90;;;;;;5080029;28;20067;-79
2021/08/01 06:29:03;;;;;;;52.83;31.27;;;15.50;99.90;;;;;;5078497;28;20052;-79
2021/08/01 06:31:30;;;;;;;69.38;36.30;;;15.50;99.90;;;;;;5086991;28;20044;-79
2021/08/01 06:33:58;;;;;;;57.17;33.97;;;15.50;99.90;;;;;;5086280;28;20063;-79
2021/08/01 06:36:25;;;;;;;64.50;34.55;;;15.60;99.90;;;;;;5073498;28;20028;-77
2021/08/01 06:38:51;;;;;;;63.83;33.63;;;15.50;99.90;;;;;;5075654;28;20486;-78
2021/08/01 06:41:16;;;;;;;54.50;31.75;;;15.50;99.90;;;;;;5079258;28;20085;-79
2021/08/01 06:43:42;;;;;;;52.22;32.05;;;15.50;99.90;;;;;;5060333;28;20119;-79
2021/08/01 06:46:09;;;;;;;54.28;31.67;;;15.50;99.90;;;;;;5051374;28;20036;-78
2021/08/01 06:48:35;;;;;;;46.90;29.25;;;15.50;99.90;;;;;;5070735;28;20543;-80
2021/08/01 06:51:04;;;;;;;74.90;32.90;;;15.50;99.90;;;;;;5067940;28;20077;-79
2021/08/01 06:53:31;;;;;;;57.83;32.05;;;15.50;99.90;;;;;;5074147;28;20079;-80
2021/08/01 06:55:57;;;;;;;72.80;33.47;;;15.60;99.90;;;;;;5087768;28;20055;-80
2021/08/01 06:58:23;;;;;;;63.70;33.85;;;15.60;99.90;;;;;;5086695;28;20040;-79
2021/08/01 07:00:51;;;;;;;67.68;32.05;;;15.60;99.90;;;;;;5074006;28;20041;-80
2021/08/01 07:03:17;;;;;;;53.45;30.13;;;15.60;99.90;;;;;;5078560;28;20045;-78
2021/08/01 07:05:43;;;;;;;51.22;30.52;;;15.60;99.90;;;;;;5084936;28;20052;-79
2021/08/01 07:08:09;;;;;;;47.53;28.25;;;15.60;99.90;;;;;;5063611;28;20352;-77
2021/08/01 07:10:36;;;;;;;60.20;32.05;;;15.60;99.90;;;;;;5067304;28;20067;-77
2021/08/01 07:13:03;;;;;;;58.65;32.83;;;15.60;99.90;;;;;;5085050;28;20657;-78
2021/08/01 07:15:29;;;;;;;54.03;31.13;;;15.60;99.90;;;;;;5073900;28;20047;-78
2021/08/01 07:17:57;;;;;;;80.25;35.55;;;15.60;99.90;;;;;;5073878;28;20032;-81
2021/08/01 07:20:24;;;;;;;84.63;35.50;;;15.60;99.90;;;;;;5044725;28;20056;-80
2021/08/01 07:22:50;;;;;;;59.20;33.03;;;15.60;99.90;;;;;;5074357;28;20486;-79
2021/08/01 07:25:20;;;;;;;64.68;32.47;;;15.60;99.90;;;;;;5088645;28;20036;-81
2021/08/01 07:27:46;;;;;;;45.65;27.52;;;15.60;99.90;;;;;;5081349;28;20119;-78
2021/08/01 07:30:13;;;;;;;46.88;27.92;;;15.60;99.90;;;;;;5066386;28;20071;-77
2021/08/01 07:32:39;;;;;;;46.22;26.30;;;15.60;99.90;;;;;;5071684;28;20050;-77
2021/08/01 07:35:06;;;;;;;25.00;15.40;;;15.60;99.90;;;;;;5081616;28;20075;-80
2021/08/01 07:37:32;;;;;;;13.32;10.25;;;15.60;99.90;;;;;;5069503;28;20059;-79
2021/08/01 07:39:58;;;;;;;19.38;9.27;;;15.60;99.90;;;;;;5074673;28;20397;-79
2021/08/01 07:42:24;;;;;;;5.90;4.25;;;15.60;99.90;;;;;;5033236;28;20566;-80
2021/08/01 07:44:55;;;;;;;6.07;3.47;;;15.50;99.90;;;;;;5083266;28;20051;-78
2021/08/01 07:47:23;;;;;;;5.68;3.65;;;15.50;99.90;;;;;;5085847;28;20449;-80
2021/08/01 07:49:51;;;;;;;4.88;3.50;;;15.50;99.90;;;;;;5082710;28;20047;-77
2021/08/01 07:52:18;;;;;;;5.10;3.25;;;15.40;99.90;;;;;;5076662;28;20036;-77
2021/08/01 07:54:47;;;;;;;3.67;2.35;;;15.40;99.90;;;;;;5070779;28;20441;-76
2021/08/01 07:57:23;;;;;;;2.90;2.15;;;15.40;99.90;;;;;;5084991;28;20146;-78
2021/08/01 07:59:49;;;;;;;3.55;2.65;;;15.40;99.90;;;;;;5082816;28;20560;-77
2021/08/01 08:02:16;;;;;;;9.20;3.90;;;15.40;99.90;;;;;;5084761;28;20054;-78
2021/08/01 08:04:42;;;;;;;4.50;2.95;;;15.50;99.90;;;;;;5078461;28;20149;-77
2021/08/01 08:07:11;;;;;;;6.75;3.85;;;15.40;99.90;;;;;;5082509;28;20803;-78
2021/08/01 08:09:37;;;;;;;6.82;4.43;;;15.50;99.90;;;;;;5060022;28;20075;-78
2021/08/01 08:12:03;;;;;;;7.25;4.28;;;15.50;99.90;;;;;;5068095;28;20692;-81
2021/08/01 08:14:29;;;;;;;9.65;5.82;;;15.50;99.90;;;;;;5077812;28;20885;-78
2021/08/01 08:16:56;;;;;;;10.68;7.93;;;15.60;99.90;;;;;;5084899;28;20157;-79
2021/08/01 08:19:22;;;;;;;12.05;8.45;;;15.60;99.90;;;;;;5071661;28;20592;-79
2021/08/01 08:21:49;;;;;;;11.25;8.23;;;15.60;99.90;;;;;;5058932;28;20465;-78
2021/08/01 08:24:15;;;;;;;12.00;8.60;;;15.60;99.90;;;;;;5081378;28;20077;-79
2021/08/01 08:26:44;;;;;;;10.73;8.73;;;15.60;99.90;;;;;;5058130;28;20090;-80
2021/08/01 08:29:09;;;;;;;11.75;8.77;;;15.60;99.90;;;;;;5061539;28;20063;-77
2021/08/01 08:31:35;;;;;;;12.40;8.60;;;15.60;99.90;;;;;;5034057;28;20503;-78
2021/08/01 08:34:01;;;;;;;9.10;7.03;;;15.60;99.90;;;;;;5066712;28;20044;-78
2021/08/01 08:36:27;;;;;;;8.50;6.07;;;15.60;99.90;;;;;;5065822;28;20070;-77
2021/08/01 08:38:53;;;;;;;7.40;5.40;;;15.60;99.90;;;;;;5084262;28;20230;-77
2021/08/01 08:41:20;;;;;;;5.75;3.88;;;15.60;99.90;;;;;;5042103;28;20131;-78
2021/08/01 08:43:46;;;;;;;4.38;3.50;;;15.60;99.90;;;;;;5084166;28;20220;-77
2021/08/01 08:46:13;;;;;;;4.88;3.28;;;15.50;99.90;;;;;;5089742;28;20040;-78
2021/08/01 08:48:40;;;;;;;4.90;3.03;;;15.50;99.90;;;;;;5072015;28;20380;-78
2021/08/01 08:51:11;;;;;;;3.83;2.40;;;15.50;99.90;;;;;;5072079;28;20039;-79
2021/08/01 08:53:47;;;;;;;2.63;2.33;;;15.50;99.90;;;;;;5073636;28;20067;-78
2021/08/01 08:56:14;;;;;;;3.55;2.60;;;15.40;99.90;;;;;;5075948;28;20043;-78
2021/08/01 08:58:42;;;;;;;3.28;1.98;;;15.40;99.90;;;;;;5075339;28;20036;-77
2021/08/01 09:01:11;;;;;;;4.03;2.58;;;15.30;99.90;;;;;;5069418;28;20119;-78
2021/08/01 09:03:37;;;;;;;3.38;2.45;;;15.30;99.90;;;;;;5078444;28;20036;-77
2021/08/01 09:06:04;;;;;;;4.13;2.50;;;15.40;99.90;;;;;;5062698;28;20032;-78
2021/08/01 09:08:30;;;;;;;3.85;2.00;;;15.40;99.90;;;;;;5082425;28;20090;-78
2021/08/01 09:10:58;;;;;;;3.55;2.08;;;15.40;99.90;;;;;;5080518;28;20454;-78
2021/08/01 09:13:50;;;;;;;2.88;1.98;;;15.40;99.90;;;;;;5072368;28;20044;-78
2021/08/01 09:16:19;;;;;;;2.90;1.60;;;15.40;99.90;;;;;;5070840;28;20044;-78
2021/08/01 09:18:47;;;;;;;2.95;2.28;;;15.40;99.90;;;;;;5067914;28;20087;-79
2021/08/01 09:21:32;;;;;;;3.35;2.38;;;15.40;99.90;;;;;;5080623;28;20414;-77
2021/08/01 09:23:59;;;;;;;3.88;2.38;;;15.40;99.90;;;;;;5071404;28;20036;-77
2021/08/01 09:26:53;;;;;;;4.05;2.20;;;15.50;99.90;;;;;;5065697;28;20089;-77
2021/08/01 09:29:19;;;;;;;4.63;2.95;;;15.50;99.90;;;;;;5079067;28;20055;-77
2021/08/01 09:31:55;;;;;;;4.13;3.30;;;15.60;99.90;;;;;;5077835;28;20096;-77
2021/08/01 09:34:27;;;;;;;4.78;3.60;;;15.70;99.90;;;;;;5078885;28;20951;-76
2021/08/01 09:37:04;;;;;;;5.53;3.60;;;15.80;99.90;;;;;;5076698;28;20036;-77
2021/08/01 09:39:42;;;;;;;7.28;4.25;;;15.90;99.90;;;;;;5063060;28;20075;-77
2021/08/01 09:42:11;;;;;;;6.05;3.53;;;16.10;99.90;;;;;;5054111;28;20043;-77
2021/08/01 09:44:39;;;;;;;4.22;3.28;;;16.20;99.90;;;;;;5078302;28;20044;-77
2021/08/01 09:47:06;;;;;;;5.95;3.70;;;16.30;99.90;;;;;;5084037;28;20032;-77
2021/08/01 09:49:32;;;;;;;3.88;2.50;;;16.40;99.90;;;;;;5070717;28;20120;-76
2021/08/01 09:52:03;;;;;;;3.10;2.13;;;16.50;99.90;;;;;;5069815;28;20168;-76
2021/08/01 09:54:49;;;;;;;2.90;2.10;;;16.50;99.90;;;;;;5081721;28;20565;-76
2021/08/01 09:57:19;;;;;;;4.32;2.83;;;16.40;99.90;;;;;;5073900;28;20040;-76
2021/08/01 10:00:04;;;;;;;3.20;2.50;;;16.40;99.90;;;;;;5082698;28;20128;-76
2021/08/01 10:02:38;;;;;;;4.32;2.53;;;16.50;99.90;;;;;;5080861;28;20047;-77
2021/08/01 10:05:15;;;;;;;6.18;3.25;;;16.50;99.90;;;;;;5075171;28;20047;-77
2021/08/01 10:07:51;;;;;;;5.28;4.30;;;16.60;99.90;;;;;;5081619;28;20505;-79
2021/08/01 10:10:25;;;;;;;4.28;3.55;;;16.60;99.90;;;;;;5070973;28;20048;-77
2021/08/01 10:12:53;;;;;;;6.45;4.70;;;16.70;99.90;;;;;;5069174;28;20045;-77
2021/08/01 10:15:20;;;;;;;5.13;4.30;;;16.70;99.90;;;;;;5062559;28;20054;-77
2021/08/01 10:17:46;;;;;;;8.90;5.18;;;16.80;99.90;;;;;;5067654;28;20044;-76
2021/08/01 10:20:13;;;;;;;5.68;4.25;;;16.80;99.90;;;;;;5064035;28;20580;-77
2021/08/01 10:22:41;;;;;;;6.18;4.93;;;16.80;99.90;;;;;;5080619;28;20123;-79
2021/08/01 10:25:16;;;;;;;5.82;4.38;;;16.90;99.90;;;;;;5081253;28;20059;-76
2021/08/01 10:27:46;;;;;;;6.40;4.80;;;16.90;99.90;;;;;;5080533;28;20121;-77
2021/08/01 10:30:21;;;;;;;6.70;5.53;;;17.10;99.90;;;;;;5067819;28;20060;-81
2021/08/01 10:32:52;;;;;;;6.28;4.65;;;17.50;99.90;;;;;;5073302;28;20465;-79
2021/08/01 10:35:21;;;;;;;5.35;3.70;;;17.90;99.90;;;;;;5075072;28;20032;-80
2021/08/01 10:38:01;;;;;;;6.43;4.07;;;18.20;99.90;;;;;;5078043;28;20051;-78
2021/08/01 10:40:31;;;;;;;3.83;3.15;;;18.30;99.90;;;;;;5059607;28;20048;-78
2021/08/01 10:43:07;;;;;;;6.43;4.38;;;18.30;99.90;;;;;;5073325;28;20063;-77
2021/08/01 10:45:35;;;;;;;4.57;3.33;;;18.40;99.90;;;;;;5059276;28;20066;-77
2021/08/01 10:48:01;;;;;;;4.82;3.65;;;18.60;99.90;;;;;;5073367;28;20432;-77
2021/08/01 10:50:29;;;;;;;5.10;2.75;;;18.70;99.90;;;;;;5081495;28;20032;-76
2021/08/01 10:53:18;;;;;;;5.38;3.15;;;18.80;99.90;;;;;;5075209;28;20043;-77
2021/08/01 10:55:45;;;;;;;5.75;3.22;;;18.80;99.90;;;;;;5063382;28;20670;-77
2021/08/01 10:58:12;;;;;;;4.70;2.92;;;18.70;99.90;;;;;;5071466;28;20061;-76
2021/08/01 11:01:01;;;;;;;4.10;3.38;;;18.60;99.90;;;;;;5072121;28;21050;-78
2021/08/01 11:03:33;;;;;;;5.35;3.22;;;18.50;99.90;;;;;;5080083;28;20111;-77
2021/08/01 11:06:00;;;;;;;4.75;3.22;;;18.40;99.90;;;;;;5073161;28;20047;-77
2021/08/01 11:08:26;;;;;;;5.35;3.70;;;18.30;99.90;;;;;;5057045;28;20119;-75
2021/08/01 11:11:14;;;;;;;4.47;3.80;;;18.30;99.90;;;;;;5059030;28;20479;-77
2021/08/01 11:13:42;;;;;;;3.88;3.25;;;18.20;99.90;;;;;;5072630;28;20044;-77
2021/08/01 11:16:14;;;;;;;6.72;3.80;;;18.10;99.90;;;;;;5070193;28;20200;-78
2021/08/01 11:18:45;;;;;;;5.40;4.47;;;18.00;99.90;;;;;;5069209;28;20120;-77
2021/08/01 11:21:13;;;;;;;6.28;4.50;;;17.90;99.90;;;;;;5072613;28;20113;-80
2021/08/01 11:23:47;;;;;;;8.02;5.07;;;17.70;99.90;;;;;;5047950;28;20531;-80
2021/08/01 11:26:16;;;;;;;5.78;4.43;;;17.60;99.90;;;;;;5058840;28;20056;-78
2021/08/01 11:28:44;;;;;;;6.80;5.00;;;17.60;99.90;;;;;;5074976;28;20042;-80
2021/08/01 11:31:19;;;;;;;7.25;5.25;;;17.50;99.90;;;;;;5053770;28;20052;-78
2021/08/01 11:33:53;;;;;;;8.00;5.25;;;17.50;99.90;;;;;;5079000;28;20090;-79
2021/08/01 11:36:19;;;;;;;6.70;5.40;;;17.50;99.90;;;;;;5079361;28;20044;-79
2021/08/01 11:38:51;;;;;;;7.47;6.68;;;17.70;99.90;;;;;;5076964;28;20105;-78
2021/08/01 11:44:00;;;;;;;7.13;6.43;;;17.90;99.90;;;;;;5073826;28;20036;-78
2021/08/01 11:46:28;;;;;;;8.73;7.05;;;17.90;99.90;;;;;;5065460;28;20040;-78
2021/08/01 11:49:06;;;;;;;7.82;6.40;;;17.90;99.90;;;;;;5073127;28;20680;-78
2021/08/01 11:51:43;;;;;;;6.55;5.45;;;18.00;99.90;;;;;;5069400;28;20047;-78
2021/08/01 11:54:12;;;;;;;7.88;5.82;;;18.10;99.90;;;;;;5075607;28;20036;-77
2021/08/01 11:56:42;;;;;;;6.15;5.53;;;18.20;99.90;;;;;;5061547;28;20810;-76
2021/08/01 11:59:15;;;;;;;7.35;6.05;;;18.20;99.90;;;;;;5084905;28;20132;-77
2021/08/01 12:01:48;;;;;;;7.38;6.68;;;18.30;99.90;;;;;;5051116;28;20044;-77
2021/08/01 12:04:14;;;;;;;7.68;6.43;;;18.30;99.90;;;;;;5056131;28;20716;-76
2021/08/01 12:06:42;;;;;;;6.95;6.18;;;18.30;99.90;;;;;;5075478;28;20044;-77
2021/08/01 12:09:15;;;;;;;7.32;6.53;;;18.30;99.90;;;;;;5074999;28;20122;-76
2021/08/01 12:11:42;;;;;;;7.35;6.35;;;18.30;99.90;;;;;;5067382;28;20045;-76
2021/08/01 12:14:12;;;;;;;7.15;6.07;;;18.30;99.90;;;;;;5037913;28;20032;-77
2021/08/01 12:16:54;;;;;;;9.25;7.20;;;18.30;99.90;;;;;;5069616;28;20048;-76
2021/08/01 12:19:21;;;;;;;7.63;5.72;;;18.60;99.90;;;;;;5069038;28;20041;-76
2021/08/01 12:21:50;;;;;;;7.22;6.35;;;18.90;99.90;;;;;;5062374;28;20131;-76
2021/08/01 12:24:26;;;;;;;5.93;4.95;;;18.80;99.90;;;;;;5071851;28;20076;-76
2021/08/01 12:27:01;;;;;;;6.95;5.97;;;18.70;99.90;;;;;;5053368;28;20047;-76
2021/08/01 12:29:36;;;;;;;6.47;5.63;;;18.60;99.90;;;;;;5071666;28;20475;-78
2021/08/01 12:32:29;;;;;;;12.40;6.10;;;18.40;99.90;;;;;;5079962;28;20060;-83
2021/08/01 12:35:14;;;;;;;11.75;5.15;;;18.20;99.90;;;;;;5070987;28;20032;-84
2021/08/01 12:37:41;;;;;;;3.78;2.10;;;18.00;99.90;;;;;;5073606;28;20048;-84
2021/08/01 12:40:08;;;;;;;4.05;2.20;;;17.80;99.90;;;;;;5070196;28;20037;-82
2021/08/01 12:42:35;;;;;;;3.70;1.45;;;17.60;99.90;;;;;;5073187;28;20040;-78
2021/08/01 12:45:03;;;;;;;4.63;1.98;;;17.40;99.90;;;;;;5072173;28;20547;-78
2021/08/01 12:47:31;;;;;;;3.17;1.83;;;17.30;99.90;;;;;;5075926;28;20036;-79